Clintondale, NY (12515)

7:43 AM EDT on July 29, 2016 (GMT -0400)
Highgait Farm | | Change Station

Elev 715 ft 41.67 °N, 74.06 °W | Updated 4 minutes ago

Light Rain
Light Rain
69.1 °F
Feels Like 69.1 °F
N
0.0
Wind Variable Wind from ESE

Today
High -- | Low -- °F
--% Chance of Precip.
Yesterday
High -- | Low -- °F
Precip. -- in
Pressure 29.84 in
Visibility 8.0 miles
Clouds Few 9500 ft
Mostly Cloudy 12000 ft
Dew Point 67 °F
Humidity 92%
Rainfall 0.14 in
Snow Depth Not available.
5:48 AM 8:16 PM
Waning Crescent, 22% visible
METAR KPOU 291053Z 16003KT 8SM -RA FEW095 BKN120 22/19 A2985 RMK AO2 RAE27B43 SLP104 P0002 T02220194
Pressure 29.84 in
Visibility 8.0 miles
Clouds Few 9500 ft
Mostly Cloudy 12000 ft
Dew Point 67 °F
Humidity 92%
Rainfall 0.14 in
Snow Depth Not available.
5:48 AM 8:16 PM
Waning Crescent, 22% visible
METAR KPOU 291053Z 16003KT 8SM -RA FEW095 BKN120 22/19 A2985 RMK AO2 RAE27B43 SLP104 P0002 T02220194

10-Day Weather Forecast

Almanac

Astronomy

Jul. 29, 2016 Rise Set
Actual Time
Civil Twilight
Nautical Twilight
Astronomical Twilight
Moon
Length of Visible Light
Length of Day
Tomorrow will be .
, % of the Moon is Illuminated

Today's Extremes

State Highs State Lows

Community

WunderPhotos

Upload Photos

1,928,325 photos uploaded!

WunderBlog® & News

Nearby

Air Quality

  Air Quality AQ Index Pollutant
Not available.

Snow Depth

Station Depth Elevation

Earthquake Activity

City Distance Mag. Time & Date
Minimum magnitude displayed is 2.5.

Coastal Water Temperatures

Place Temperature

Stations

Nearby Weather Stations

Station Location Temp. Windchill Dew Point Humidity Wind Precip. Elev Updated Type
                   

Watches & Warnings

There are currently no watches in effect.